Time;durP1;ratioP1;P1;durP2;ratioP2;P2;SDS_P1;SDS_P2;PMS_P1;PMS_P2;Temp;Humidity;BMP_temperature;BMP_pressure;BME280_temperature;BME280_humidity;BME280_pressure;Samples;Min_cycle;Max_cycle;Signal;HPM_P1;HPM_P2
2022/09/13 00:00:59;;;;;;;;;6.50;6.00;;;;;22.84;50.58;100367.31;5033826;28;45301;-57
2022/09/13 00:03:25;;;;;;;;;10.50;6.25;;;;;22.85;50.12;100368.13;5037001;28;46167;-57
2022/09/13 00:05:50;;;;;;;;;7.50;5.25;;;;;22.85;50.19;100362.81;5026107;28;72111;-58
2022/09/13 00:08:16;;;;;;;;;4.00;4.00;;;;;22.84;50.16;100363.75;5032756;28;45505;-58
2022/09/13 00:10:43;;;;;;;;;5.75;5.00;;;;;22.83;50.23;100356.75;5036697;28;45406;-58
2022/09/13 00:13:09;;;;;;;;;7.75;5.00;;;;;22.81;49.98;100348.03;5037749;28;47089;-58
2022/09/13 00:15:35;;;;;;;;;9.00;5.25;;;;;22.81;49.98;100356.03;5054954;28;45315;-57
2022/09/13 00:18:01;;;;;;;;;7.75;6.25;;;;;22.78;50.13;100367.81;5026891;28;45333;-58
2022/09/13 00:20:26;;;;;;;;;7.75;4.25;;;;;22.79;50.12;100363.31;5032402;28;67706;-58
2022/09/13 00:22:52;;;;;;;;;3.75;3.75;;;;;22.76;50.48;100369.75;5036667;28;45994;-57
2022/09/13 00:25:18;;;;;;;;;7.25;5.50;;;;;22.76;50.14;100369.75;5065146;28;45480;-58
2022/09/13 00:27:44;;;;;;;;;8.25;6.75;;;;;22.76;50.34;100364.41;5061836;28;45462;-58
2022/09/13 00:30:10;;;;;;;;;6.00;6.00;;;;;22.75;50.40;100365.38;5038211;28;45588;-57
2022/09/13 00:32:36;;;;;;;;;6.75;6.00;;;;;22.74;50.25;100353.88;5047766;28;46234;-57
2022/09/13 00:35:04;;;;;;;;;6.00;6.00;;;;;22.73;50.43;100351.34;5079587;27;45359;-59
2022/09/13 00:37:30;;;;;;;;;6.00;4.25;;;;;22.73;50.33;100346.00;5043699;28;45352;-57
2022/09/13 00:39:55;;;;;;;;;7.00;4.00;;;;;22.72;50.14;100339.81;5052483;28;45476;-57
2022/09/13 00:42:28;;;;;;;;;6.50;6.00;;;;;22.73;50.18;100335.31;5043977;28;47048;-58
2022/09/13 00:45:06;;;;;;;;;5.25;5.00;;;;;22.72;50.06;100323.81;5062828;28;45234;-58
2022/09/13 00:47:54;;;;;;;;;6.50;6.50;;;;;22.73;50.23;100316.66;5078069;27;45388;-58
2022/09/13 00:50:42;;;;;;;;;5.25;4.50;;;;;22.70;50.26;100314.25;5048161;28;45605;-58
2022/09/13 00:53:10;;;;;;;;;9.25;6.25;;;;;22.70;49.89;100312.44;5064082;28;45512;-58
2022/09/13 00:55:42;;;;;;;;;8.00;7.00;;;;;22.70;50.13;100322.25;5054900;28;45736;-58
2022/09/13 00:58:12;;;;;;;;;7.75;4.75;;;;;22.67;50.47;100314.53;5055023;28;45363;-58
2022/09/13 01:00:38;;;;;;;;;5.75;5.75;;;;;22.67;49.96;100318.03;5057357;28;45340;-58
2022/09/13 01:03:07;;;;;;;;;9.00;5.50;;;;;22.67;50.22;100320.69;5058236;27;46981;-57
2022/09/13 01:05:36;;;;;;;;;6.00;5.75;;;;;22.66;50.08;100321.66;5052185;27;45417;-58
2022/09/13 01:08:03;;;;;;;;;4.50;4.50;;;;;22.66;50.30;100318.16;5076680;27;45747;-57
2022/09/13 01:10:30;;;;;;;;;5.25;5.00;;;;;22.65;50.63;100317.31;5056412;27;45502;-57
2022/09/13 01:13:04;;;;;;;;;6.00;5.75;;;;;22.66;50.39;100316.31;5077390;27;46361;-56
2022/09/13 01:15:29;;;;;;;;;4.50;4.00;;;;;22.67;50.31;100314.53;5056001;28;45812;-57
2022/09/13 01:17:55;;;;;;;;;6.00;4.25;;;;;22.65;50.13;100306.66;5072799;27;64969;-57
2022/09/13 01:20:26;;;;;;;;;7.00;5.50;;;;;22.65;50.09;100298.66;5077116;28;68226;-58
2022/09/13 01:23:21;;;;;;;;;7.00;5.25;;;;;22.64;50.39;100302.28;5056163;28;45521;-57
2022/09/13 01:26:08;;;;;;;;;6.00;5.75;;;;;22.63;50.60;100292.59;5057785;28;45382;-58
2022/09/13 01:28:57;;;;;;;;;6.00;5.00;;;;;22.62;50.30;100300.72;5071381;27;45416;-58
2022/09/13 01:31:32;;;;;;;;;5.00;5.00;;;;;22.60;50.61;100298.19;5035447;28;45443;-57
2022/09/13 01:34:14;;;;;;;;;8.00;4.50;;;;;22.62;50.63;100292.72;5056468;28;46530;-57
2022/09/13 01:36:42;;;;;;;;;8.75;6.00;;;;;22.60;50.26;100287.50;5070921;27;45524;-57
2022/09/13 01:39:14;;;;;;;;;6.50;5.00;;;;;22.60;50.36;100284.00;5074819;27;45285;-57
2022/09/13 01:41:47;;;;;;;;;5.50;5.00;;;;;22.60;49.88;100284.84;5040884;27;45441;-58
2022/09/13 01:44:55;;;;;;;;;5.25;5.25;;;;;22.59;49.89;100282.31;5069653;27;46915;-58
2022/09/13 01:47:33;;;;;;;;;5.50;5.25;;;;;22.58;50.47;100286.81;5055797;28;45873;-57
2022/09/13 01:50:07;;;;;;;;;6.00;5.00;;;;;22.57;50.30;100282.44;5048359;28;45252;-58
2022/09/13 01:52:54;;;;;;;;;6.25;5.00;;;;;22.56;49.84;100278.94;5079092;27;45233;-58
2022/09/13 01:55:44;;;;;;;;;5.50;4.00;;;;;22.56;50.46;100283.44;5066269;27;45745;-57
2022/09/13 01:58:27;;;;;;;;;7.00;4.75;;;;;22.54;49.94;100274.69;5054978;27;45597;-57
2022/09/13 02:00:52;;;;;;;;;7.75;5.50;;;;;22.54;50.41;100274.69;5048859;28;45481;-57
2022/09/13 02:03:35;;;;;;;;;5.00;4.67;;;;;22.54;50.16;100266.69;5077051;27;45512;-57
2022/09/13 02:06:07;;;;;;;;;4.75;4.75;;;;;22.54;50.51;100269.34;5078199;28;47075;-57
2022/09/13 02:08:41;;;;;;;;;6.50;5.75;;;;;22.53;50.43;100265.00;5049431;27;45285;-58
2022/09/13 02:11:12;;;;;;;;;5.25;5.25;;;;;22.52;50.46;100266.84;5063857;27;45410;-58
2022/09/13 02:13:52;;;;;;;;;5.25;4.75;;;;;22.51;49.96;100265.13;5054734;28;46097;-57
2022/09/13 02:16:55;;;;;;;;;5.75;5.00;;;;;22.52;50.49;100266.84;5054712;27;46204;-57
2022/09/13 02:19:30;;;;;;;;;8.25;5.75;;;;;22.51;50.12;100265.13;5050140;28;45292;-57
2022/09/13 02:21:58;;;;;;;;;6.00;5.75;;;;;22.50;50.35;100260.78;5054897;28;45313;-57
2022/09/13 02:24:30;;;;;;;;;5.00;5.00;;;;;22.49;50.04;100256.44;5049781;28;45518;-57
2022/09/13 02:26:57;;;;;;;;;6.00;6.00;;;;;22.47;50.39;100254.84;5059705;27;46371;-57
2022/09/13 02:29:23;;;;;;;;;8.25;5.50;;;;;22.47;50.17;100254.84;5051570;28;45252;-57
2022/09/13 02:32:07;;;;;;;;;6.00;3.75;;;;;22.45;50.32;100249.69;5073179;27;57334;-58
2022/09/13 02:34:38;;;;;;;;;8.50;6.00;;;;;22.44;50.19;100255.13;5069963;27;45562;-57
2022/09/13 02:37:04;;;;;;;;;3.25;3.25;;;;;22.42;50.45;100249.09;5074209;27;46974;-57
2022/09/13 02:39:31;;;;;;;;;5.75;4.25;;;;;22.37;50.68;100244.97;5040279;27;46089;-56
2022/09/13 02:42:19;;;;;;;;;4.00;3.00;;;;;22.36;50.13;100245.09;5076291;27;61345;-57
2022/09/13 02:44:48;;;;;;;;;3.75;3.75;;;;;22.36;50.32;100239.75;5055606;27;45263;-57
2022/09/13 02:47:29;;;;;;;;;3.75;3.75;;;;;22.34;50.51;100233.72;5056177;28;45493;-57
2022/09/13 02:50:29;;;;;;;;;5.00;4.75;;;;;22.32;50.87;100235.69;5064059;28;45243;-57
2022/09/13 02:53:10;;;;;;;;;7.75;6.00;;;;;22.30;50.54;100229.63;5044181;27;45479;-56
2022/09/13 02:55:43;;;;;;;;;8.00;5.00;;;;;22.29;50.41;100230.59;5075443;27;45373;-56
2022/09/13 02:58:12;;;;;;;;;4.75;4.00;;;;;22.27;50.23;100225.38;5054390;28;46048;-56
2022/09/13 03:00:38;;;;;;;;;4.00;4.00;;;;;22.27;50.52;100225.38;5069376;27;45420;-56
2022/09/13 03:03:06;;;;;;;;;5.00;4.00;;;;;22.25;50.38;100229.97;5054413;27;45326;-56
2022/09/13 03:05:31;;;;;;;;;4.00;4.00;;;;;22.24;50.67;100222.97;5052538;27;45470;-56
2022/09/13 03:07:58;;;;;;;;;3.75;2.75;;;;;22.22;50.50;100224.91;5063108;27;63600;-57
2022/09/13 03:10:26;;;;;;;;;4.00;3.00;;;;;22.21;50.85;100227.72;5058850;28;45918;-58
2022/09/13 03:13:23;;;;;;;;;4.00;3.75;;;;;22.22;50.81;100227.56;5056920;28;45390;-57
2022/09/13 03:16:19;;;;;;;;;6.00;4.00;;;;;22.22;50.41;100224.06;5022695;27;45489;-57
2022/09/13 03:19:03;;;;;;;;;4.00;3.00;;;;;22.22;50.41;100218.72;5071608;27;45410;-57
2022/09/13 03:21:56;;;;;;;;;3.75;3.25;;;;;22.21;50.83;100222.38;5067106;27;46083;-59
2022/09/13 03:24:35;;;;;;;;;5.00;4.50;;;;;22.19;50.81;100217.19;5076645;28;45329;-58
2022/09/13 03:27:28;;;;;;;;;2.50;2.50;;;;;22.19;50.96;100212.69;5052554;28;45492;-58
2022/09/13 03:30:06;;;;;;;;;6.00;3.00;;;;;22.19;50.92;100226.00;5048575;28;46555;-57
2022/09/13 03:32:50;;;;;;;;;2.75;2.00;;;;;22.19;50.93;100222.50;5053037;28;45380;-57
2022/09/13 03:35:27;;;;;;;;;4.00;4.00;;;;;22.19;50.67;100231.34;5059348;28;45533;-58
2022/09/13 03:38:01;;;;;;;;;6.00;2.25;;;;;22.19;50.46;100234.00;5074323;27;45437;-58
2022/09/13 03:40:32;;;;;;;;;3.50;3.00;;;;;22.20;50.56;100232.19;5061621;28;45522;-57
2022/09/13 03:43:04;;;;;;;;;4.00;3.75;;;;;22.21;51.04;100230.38;5075302;27;45485;-57
2022/09/13 03:45:33;;;;;;;;;4.75;4.25;;;;;22.21;50.52;100231.22;5072561;27;45516;-58
2022/09/13 03:47:59;;;;;;;;;4.50;3.00;;;;;22.19;50.92;100228.69;5053152;27;45479;-57
2022/09/13 03:50:25;;;;;;;;;6.50;4.75;;;;;22.16;50.99;100234.25;5070846;27;74273;-57
2022/09/13 03:52:59;;;;;;;;;5.00;4.00;;;;;22.21;51.15;100246.38;5043308;28;45750;-58
2022/09/13 03:55:25;;;;;;;;;6.50;3.75;;;;;22.19;50.74;100244.69;5055493;27;45330;-58
2022/09/13 03:57:50;;;;;;;;;4.00;4.00;;;;;22.19;51.25;100243.84;5077319;27;46999;-57
2022/09/13 04:00:17;;;;;;;;;3.25;3.25;;;;;22.21;51.01;100243.72;5075156;27;71110;-57
2022/09/13 04:02:42;;;;;;;;;6.00;4.75;;;;;22.19;50.56;100228.69;5062001;28;45674;-57
2022/09/13 04:05:08;;;;;;;;;3.00;3.00;;;;;22.19;51.22;100227.84;5070709;27;45143;-57
2022/09/13 04:07:33;;;;;;;;;4.00;3.25;;;;;22.17;50.83;100225.31;5057335;27;58634;-57
2022/09/13 04:09:59;;;;;;;;;6.00;5.00;;;;;22.17;51.04;100224.47;5073934;27;69747;-57
2022/09/13 04:12:25;;;;;;;;;4.50;4.00;;;;;22.16;51.03;100226.25;5070644;27;45256;-57
2022/09/13 04:14:51;;;;;;;;;3.50;3.50;;;;;22.15;51.31;100231.72;5075513;27;45491;-58
2022/09/13 04:17:17;;;;;;;;;4.75;3.00;;;;;22.12;51.01;100230.16;5067501;27;46088;-57
2022/09/13 04:19:44;;;;;;;;;5.50;3.50;;;;;22.12;50.95;100230.16;5054757;27;47362;-57
2022/09/13 04:22:09;;;;;;;;;5.75;4.00;;;;;22.12;51.22;100232.84;5073891;27;45357;-58
2022/09/13 04:24:35;;;;;;;;;3.00;2.75;;;;;22.13;51.26;100226.53;5084052;27;45392;-57
2022/09/13 04:27:01;;;;;;;;;5.25;3.00;;;;;22.13;50.92;100226.53;5077408;27;45472;-58
2022/09/13 04:29:26;;;;;;;;;3.00;3.00;;;;;22.12;51.03;100218.69;5074842;27;46330;-56
2022/09/13 04:31:53;;;;;;;;;4.00;3.50;;;;;22.11;51.00;100231.13;5077443;27;45367;-57
2022/09/13 04:34:21;;;;;;;;;6.00;4.25;;;;;22.09;51.27;100243.75;5080041;27;45220;-57
2022/09/13 04:36:46;;;;;;;;;4.75;4.75;;;;;22.07;51.24;100251.03;5071142;27;45438;-56
2022/09/13 04:39:14;;;;;;;;;5.50;4.00;;;;;22.07;51.48;100250.19;5054669;27;47043;-56
2022/09/13 04:41:43;;;;;;;;;5.00;3.00;;;;;22.05;51.11;100229.00;5071015;27;45837;-55
2022/09/13 04:44:09;;;;;;;;;7.00;4.00;;;;;22.06;51.57;100229.84;5080654;27;45258;-57
2022/09/13 04:46:34;;;;;;;;;4.25;3.75;;;;;22.02;51.95;100233.75;5075509;27;45211;-55
2022/09/13 04:48:59;;;;;;;;;6.00;5.00;;;;;21.96;51.78;100235.09;5066860;27;69647;-56
2022/09/13 04:51:25;;;;;;;;;4.00;4.00;;;;;21.95;52.05;100230.72;5059058;27;63383;-57
2022/09/13 04:53:53;;;;;;;;;6.00;4.50;;;;;21.93;51.90;100232.69;5076658;27;62326;-58
2022/09/13 04:56:18;;;;;;;;;6.00;5.00;;;;;21.91;51.97;100243.47;5070442;28;45339;-57
2022/09/13 04:58:44;;;;;;;;;1.50;1.50;;;;;21.92;51.46;100249.63;5075289;27;46034;-57
2022/09/13 05:01:09;;;;;;;;;4.00;4.00;;;;;21.93;51.87;100249.50;5074802;27;70011;-58
2022/09/13 05:03:35;;;;;;;;;4.75;2.50;;;;;21.94;51.56;100253.03;5069737;27;45473;-58
2022/09/13 05:06:21;;;;;;;;;3.75;3.25;;;;;21.96;51.72;100253.75;5059130;27;45708;-58
2022/09/13 05:08:53;;;;;;;;;6.00;3.00;;;;;21.95;51.94;100247.53;5078391;28;48222;-59
2022/09/13 05:11:23;;;;;;;;;4.00;4.00;;;;;21.96;52.05;100243.94;5074978;28;45435;-57
2022/09/13 05:13:53;;;;;;;;;3.25;3.25;;;;;21.94;51.72;100224.56;5079834;28;45231;-58
2022/09/13 05:16:19;;;;;;;;;5.25;3.75;;;;;21.96;51.63;100224.44;5058833;28;45395;-57
2022/09/13 05:18:44;;;;;;;;;3.75;3.75;;;;;21.95;51.82;100231.56;5067605;27;46152;-57
2022/09/13 05:21:09;;;;;;;;;5.00;3.50;;;;;21.95;51.65;100250.22;5071285;28;45441;-61
2022/09/13 05:23:35;;;;;;;;;5.00;5.00;;;;;21.94;51.78;100259.19;5057859;27;45431;-59
2022/09/13 05:26:03;;;;;;;;;5.25;4.00;;;;;21.95;51.29;100260.03;5079136;27;45345;-58
2022/09/13 05:28:30;;;;;;;;;5.75;3.25;;;;;21.94;51.87;100261.84;5071699;27;46321;-59
2022/09/13 05:31:02;;;;;;;;;5.00;4.00;;;;;21.96;51.71;100257.25;5066708;27;46826;-59
2022/09/13 05:33:30;;;;;;;;;4.25;3.00;;;;;21.96;51.43;100251.09;5072094;27;45284;-58
2022/09/13 05:35:55;;;;;;;;;4.00;4.00;;;;;21.97;51.50;100250.09;5063679;27;45446;-59
2022/09/13 05:38:21;;;;;;;;;8.50;4.75;;;;;21.96;51.70;100254.59;5077055;27;55346;-58
2022/09/13 05:40:47;;;;;;;;;9.00;5.25;;;;;21.98;51.71;100249.97;5053559;27;45588;-58
2022/09/13 05:43:13;;;;;;;;;6.50;5.00;;;;;22.00;51.62;100239.19;5065727;28;45327;-57
2022/09/13 05:45:39;;;;;;;;;5.00;4.00;;;;;21.99;51.56;100241.00;5063205;27;45517;-56
2022/09/13 05:48:04;;;;;;;;;8.50;4.75;;;;;22.01;51.51;100251.56;5074559;27;46098;-58
2022/09/13 05:50:30;;;;;;;;;36.50;30.50;;;;;22.02;51.48;100252.38;5075348;28;62806;-51
2022/09/13 05:52:55;;;;;;;;;7.50;6.00;;;;;22.00;51.51;100261.34;5067827;28;45697;-56
2022/09/13 05:55:21;;;;;;;;;6.00;6.00;;;;;22.02;51.42;100255.06;5065573;28;45408;-57
2022/09/13 05:57:47;;;;;;;;;4.75;4.75;;;;;22.03;51.49;100257.59;5076420;28;45237;-56
2022/09/13 06:00:13;;;;;;;;;4.00;4.00;;;;;22.04;51.48;100248.59;5058320;28;45223;-56
2022/09/13 06:02:40;;;;;;;;;6.75;6.00;;;;;22.05;51.31;100246.81;5075143;28;45191;-56
2022/09/13 06:05:06;;;;;;;;;7.25;5.00;;;;;22.05;51.70;100247.66;5072948;27;45739;-56
2022/09/13 06:07:31;;;;;;;;;9.00;5.75;;;;;22.06;51.40;100243.16;5076655;28;45447;-55
2022/09/13 06:09:57;;;;;;;;;5.00;4.00;;;;;22.06;51.66;100252.03;5076009;27;66467;-56
2022/09/13 06:12:22;;;;;;;;;10.50;5.75;;;;;22.07;51.81;100247.53;5076382;27;45738;-57
2022/09/13 06:14:48;;;;;;;;;7.25;6.25;;;;;22.06;52.05;100254.69;5073385;27;45695;-56
2022/09/13 06:17:13;;;;;;;;;7.50;6.25;;;;;22.07;51.86;100244.84;5067616;28;73037;-57
2022/09/13 06:19:39;;;;;;;;;8.50;6.00;;;;;22.07;52.02;100243.03;5076854;27;45448;-57
2022/09/13 06:22:05;;;;;;;;;7.75;5.75;;;;;22.06;52.01;100228.03;5055774;28;45395;-57
2022/09/13 06:24:30;;;;;;;;;7.00;7.00;;;;;22.05;52.06;100231.66;5054011;28;45594;-58
2022/09/13 06:26:56;;;;;;;;;10.00;8.00;;;;;22.03;52.16;100222.94;5077636;28;46319;-55
2022/09/13 06:29:22;;;;;;;;;10.25;8.25;;;;;22.01;52.58;100208.91;5058471;28;45415;-58
2022/09/13 06:31:47;;;;;;;;;7.25;6.00;;;;;22.03;52.50;100212.28;5085956;27;51143;-58
2022/09/13 06:34:14;;;;;;;;;8.00;6.50;;;;;22.02;52.14;100210.59;5068303;28;45551;-57
2022/09/13 06:36:39;;;;;;;;;10.00;7.75;;;;;22.02;52.13;100207.94;5067463;28;46327;-58
2022/09/13 06:39:05;;;;;;;;;8.00;8.00;;;;;22.04;51.97;100205.97;5069475;28;45410;-57
2022/09/13 06:41:31;;;;;;;;;5.25;5.00;;;;;22.00;52.06;100200.06;5051435;28;45198;-58
2022/09/13 06:44:00;;;;;;;;;9.00;8.00;;;;;22.01;52.52;100200.94;5064639;27;45223;-58
2022/09/13 06:46:28;;;;;;;;;6.00;4.75;;;;;21.99;51.96;100193.06;5070999;27;47081;-58
2022/09/13 06:48:54;;;;;;;;;10.25;6.00;;;;;21.99;52.15;100186.84;5071789;28;45396;-58
2022/09/13 06:51:21;;;;;;;;;5.75;4.00;;;;;21.99;51.78;100184.19;5072584;28;45404;-58
2022/09/13 06:53:47;;;;;;;;;6.25;5.75;;;;;21.97;51.92;100179.03;5066619;28;45439;-58
2022/09/13 06:56:21;;;;;;;;;6.75;3.75;;;;;21.97;52.29;100171.03;5063765;27;45491;-47
2022/09/13 06:58:48;;;;;;;;;5.00;4.00;;;;;21.99;51.93;100169.06;5067064;27;45642;-46
2022/09/13 07:01:19;;;;;;;;;6.00;5.00;;;;;21.99;51.77;100157.53;5073690;28;45446;-47
2022/09/13 07:03:47;;;;;;;;;6.00;4.00;;;;;21.99;52.27;100157.53;5060354;28;45222;-50
2022/09/13 07:06:14;;;;;;;;;5.75;4.00;;;;;21.98;51.76;100148.72;5079118;28;46156;-48
2022/09/13 07:08:41;;;;;;;;;6.25;5.00;;;;;21.99;52.16;100141.56;5078326;28;45269;-45
2022/09/13 07:11:08;;;;;;;;;8.50;5.00;;;;;21.99;52.00;100139.75;5071551;28;45394;-44
2022/09/13 07:13:33;;;;;;;;;3.75;3.75;;;;;22.01;52.34;100136.97;5081797;28;45228;-44
2022/09/13 07:16:03;;;;;;;;;4.00;4.00;;;;;22.01;52.45;100136.97;5082013;28;45190;-45
2022/09/13 07:18:29;;;;;;;;;4.75;4.25;;;;;22.02;51.83;100135.97;5079976;28;45839;-45
2022/09/13 07:21:00;;;;;;;;;6.25;4.50;;;;;22.02;51.87;100133.31;5075320;28;45477;-45
2022/09/13 07:23:26;;;;;;;;;4.50;3.75;;;;;22.06;52.09;100136.56;5080626;28;45221;-49
2022/09/13 07:26:01;;;;;;;;;4.50;4.50;;;;;22.07;51.87;100133.78;5064134;28;48547;-49
2022/09/13 07:28:34;;;;;;;;;4.00;4.00;;;;;22.10;51.63;100135.34;5083324;27;45361;-46
2022/09/13 07:31:10;;;;;;;;;5.75;4.50;;;;;22.10;51.68;100136.19;5063118;28;45292;-45
2022/09/13 07:33:36;;;;;;;;;8.00;4.75;;;;;22.11;52.06;100135.19;5081087;28;45315;-47
2022/09/13 07:36:05;;;;;;;;;4.00;4.00;;;;;22.13;52.12;100146.59;5070979;27;46236;-50
2022/09/13 07:38:34;;;;;;;;;5.00;3.75;;;;;22.14;52.05;100140.28;5058442;28;45725;-50
2022/09/13 07:40:59;;;;;;;;;4.75;4.50;;;;;22.18;52.23;100140.84;5082035;27;45289;-50
2022/09/13 07:43:25;;;;;;;;;5.00;4.00;;;;;22.19;52.33;100146.06;5082836;27;45257;-48
2022/09/13 07:46:07;;;;;;;;;6.25;4.00;;;;;22.23;52.34;100146.63;5072888;27;45401;-45
2022/09/13 07:48:34;;;;;;;;;5.00;4.00;;;;;22.28;51.86;100144.47;5067607;27;45658;-46
2022/09/13 07:51:05;;;;;;;;;11.50;11.50;;;;;22.33;52.22;100149.41;5058253;27;45327;-44
2022/09/13 07:53:32;;;;;;;;;7.25;6.25;;;;;22.35;51.80;100145.63;5051802;28;45468;-45
2022/09/13 07:56:05;;;;;;;;;6.25;6.00;;;;;22.43;51.79;100144.94;5052999;28;45384;-45
2022/09/13 07:58:35;;;;;;;;;12.75;6.25;;;;;22.48;51.48;100145.41;5076735;27;45768;-44
2022/09/13 08:01:20;;;;;;;;;9.25;6.00;;;;;22.54;51.71;100144.88;5078412;27;45212;-45
2022/09/13 08:03:53;;;;;;;;;5.50;5.00;;;;;22.59;51.78;100147.13;5079352;28;45290;-48
2022/09/13 08:06:19;;;;;;;;;5.75;5.00;;;;;22.62;51.20;100149.53;5073375;27;45975;-45
2022/09/13 08:08:44;;;;;;;;;4.00;4.00;;;;;22.65;51.38;100143.94;5079703;27;45232;-48
2022/09/13 08:11:15;;;;;;;;;5.00;3.50;;;;;22.68;51.05;100148.16;5080616;27;48856;-44
2022/09/13 08:13:40;;;;;;;;;4.50;3.00;;;;;22.69;51.33;100148.03;5079198;27;45330;-44
2022/09/13 08:16:06;;;;;;;;;2.00;2.00;;;;;22.74;50.78;100144.97;5074229;27;67264;-50
2022/09/13 08:18:32;;;;;;;;;3.75;3.75;;;;;22.77;50.76;100151.84;5058983;28;45309;-45
2022/09/13 08:21:00;;;;;;;;;5.00;3.00;;;;;22.79;51.08;100149.88;5035052;27;45319;-47
2022/09/13 08:23:26;;;;;;;;;4.75;4.75;;;;;22.83;51.00;100148.66;5081023;28;45197;-44
2022/09/13 08:25:51;;;;;;;;;4.00;4.00;;;;;22.87;50.90;100144.72;5078097;27;45381;-47
2022/09/13 08:28:20;;;;;;;;;4.25;3.50;;;;;22.91;50.90;100143.47;5050790;28;45494;-44
2022/09/13 08:30:46;;;;;;;;;5.75;3.00;;;;;22.91;50.68;100136.31;5066505;27;45341;-45
2022/09/13 08:33:11;;;;;;;;;3.25;3.25;;;;;22.94;50.54;100143.19;5073099;27;45431;-44
2022/09/13 08:35:37;;;;;;;;;4.75;3.50;;;;;22.98;50.51;100135.75;5080842;27;46108;-45
2022/09/13 08:38:04;;;;;;;;;4.25;4.00;;;;;23.01;50.65;100140.84;5068975;27;45370;-47
2022/09/13 08:40:31;;;;;;;;;4.00;4.00;;;;;;;;5053262;27;45268;-47
2022/09/13 08:43:28;;;;;;;;;4.25;3.25;;;;;23.07;50.15;100137.63;5079665;27;45363;-44
2022/09/13 08:46:00;;;;;;;;;4.75;3.00;;;;;23.08;49.99;100134.84;5076156;27;46198;-43
2022/09/13 08:48:32;;;;;;;;;7.25;4.00;;;;;23.10;50.45;100146.22;5055349;28;45617;-45
2022/09/13 08:51:02;;;;;;;;;5.50;3.25;;;;;23.15;50.45;100151.16;5080843;27;45215;-44
2022/09/13 08:53:30;;;;;;;;;4.00;4.00;;;;;23.19;50.06;100157.06;5072277;27;46499;-47
2022/09/13 08:56:32;;;;;;;;;3.50;3.50;;;;;23.24;50.10;100177.03;5072619;27;45380;-45
2022/09/13 08:59:16;;;;;;;;;4.50;3.50;;;;;23.29;49.97;100176.63;5079632;27;45635;-43
2022/09/13 09:01:48;;;;;;;;;5.00;4.25;;;;;23.33;50.03;100178.03;5072320;27;45301;-45
2022/09/13 09:04:25;;;;;;;;;4.50;3.50;;;;;23.39;49.82;100184.63;5072286;28;45432;-47
2022/09/13 09:07:05;;;;;;;;;5.50;4.50;;;;;23.44;49.88;100190.41;5080022;27;46135;-48
2022/09/13 09:09:40;;;;;;;;;3.25;3.25;;;;;23.47;49.94;100185.63;5046824;28;45430;-45
2022/09/13 09:12:18;;;;;;;;;2.00;2.00;;;;;23.51;49.39;100186.19;5076827;27;45419;-47
2022/09/13 09:14:53;;;;;;;;;3.75;2.00;;;;;23.57;49.27;100184.78;5080396;27;45328;-45
2022/09/13 09:17:25;;;;;;;;;4.50;3.00;;;;;23.60;49.51;100176.50;5078028;27;45223;-46
2022/09/13 09:20:15;;;;;;;;;2.75;2.75;;;;;23.62;48.93;100187.91;5060539;27;45386;-48
2022/09/13 09:22:40;;;;;;;;;5.00;4.00;;;;;23.66;49.31;100213.38;5032366;28;45376;-45
2022/09/13 09:25:09;;;;;;;;;2.75;2.75;;;;;23.64;49.37;100223.34;5074516;28;72130;-50
2022/09/13 09:27:35;;;;;;;;;4.00;4.00;;;;;23.64;48.39;100212.66;5065345;27;45400;-47
2022/09/13 09:30:00;;;;;;;;;7.25;3.75;;;;;23.64;51.99;100191.31;5078038;27;73308;-49
2022/09/13 09:32:45;;;;;;;;;6.50;4.00;;;;;23.58;53.91;100187.31;5076864;27;52871;-50
2022/09/13 09:35:35;;;;;;;;;9.50;6.75;;;;;23.54;55.37;100193.09;5064190;27;45453;-50
2022/09/13 09:38:22;;;;;;;;;5.75;5.25;;;;;23.49;55.30;100190.84;5070863;28;46242;-49
2022/09/13 09:40:48;;;;;;;;;4.50;4.50;;;;;23.45;53.67;100197.44;5047415;28;45357;-43
2022/09/13 09:43:23;;;;;;;;;7.25;4.00;;;;;23.45;54.70;100200.97;5055109;28;45350;-43
2022/09/13 09:45:50;;;;;;;;;7.50;5.00;;;;;23.45;55.32;100208.97;5077164;27;45275;-48
2022/09/13 09:48:21;;;;;;;;;6.25;6.25;;;;;23.45;56.11;100213.47;5051131;28;45453;-45
2022/09/13 09:50:50;;;;;;;;;6.25;5.25;;;;;23.44;56.30;100209.09;5059730;28;45199;-44
2022/09/13 09:53:34;;;;;;;;;6.75;5.25;;;;;23.44;57.18;100220.66;5062300;28;45360;-46
2022/09/13 09:56:05;;;;;;;;;6.25;4.50;;;;;23.44;56.65;100226.00;5058783;28;45336;-45
2022/09/13 09:58:40;;;;;;;;;6.00;6.00;;;;;23.46;56.03;100207.13;5075411;27;45802;-43
2022/09/13 10:01:23;;;;;;;;;6.75;3.75;;;;;23.48;55.27;100202.53;5043757;28;45418;-47
2022/09/13 10:03:57;;;;;;;;;6.50;4.50;;;;;23.48;56.04;100211.38;5062250;27;45338;-43
2022/09/13 10:06:26;;;;;;;;;7.00;6.00;;;;;23.51;56.60;100212.91;5049977;27;45619;-47
2022/09/13 10:09:03;;;;;;;;;5.50;5.50;;;;;23.53;56.92;100220.78;5072003;27;46629;-45
2022/09/13 10:11:47;;;;;;;;;7.00;7.00;;;;;23.54;55.56;100217.16;5064122;27;45328;-45
2022/09/13 10:14:45;;;;;;;;;6.75;6.25;;;;;23.52;55.25;100217.28;5079815;28;45316;-44
2022/09/13 10:17:17;;;;;;;;;7.25;5.50;;;;;23.55;54.59;100225.03;5058014;28;45449;-44
2022/09/13 10:20:08;;;;;;;;;7.00;7.00;;;;;23.60;55.55;100224.59;5053299;28;48076;-48
2022/09/13 10:22:33;;;;;;;;;7.00;7.00;;;;;23.65;55.21;100215.19;5077315;28;45673;-46
2022/09/13 10:25:21;;;;;;;;;8.25;7.50;;;;;23.74;55.69;100220.69;5060996;28;45249;-49
2022/09/13 10:27:49;;;;;;;;;10.00;7.75;;;;;23.80;55.45;100218.34;5078358;28;45204;-47
2022/09/13 10:30:45;;;;;;;;;8.50;6.50;;;;;23.86;54.99;100217.75;5078205;28;46226;-45
2022/09/13 10:33:22;;;;;;;;;7.25;5.00;;;;;23.92;54.63;100226.19;5077164;28;45446;-45
2022/09/13 10:35:49;;;;;;;;;7.00;5.00;;;;;23.92;53.70;100216.38;5068535;28;45260;-45
2022/09/13 10:38:50;;;;;;;;;6.50;4.75;;;;;23.94;54.03;100222.41;5055501;28;45536;-46
2022/09/13 10:41:23;;;;;;;;;4.75;4.75;;;;;23.97;54.09;100218.59;5036386;28;47249;-46
2022/09/13 10:43:56;;;;;;;;;7.75;5.00;;;;;23.98;53.28;100207.78;5050251;28;45392;-45
2022/09/13 10:46:22;;;;;;;;;7.00;5.00;;;;;23.98;53.48;100198.94;5059948;28;45538;-45
2022/09/13 10:48:57;;;;;;;;;6.75;5.75;;;;;24.01;53.18;100207.50;5044315;28;45467;-44
2022/09/13 10:51:25;;;;;;;;;6.00;6.00;;;;;24.06;53.11;100207.06;5074473;28;46122;-45
2022/09/13 10:54:07;;;;;;;;;6.50;5.50;;;;;24.13;53.16;100216.19;5069124;28;45277;-44
2022/09/13 10:56:32;;;;;;;;;6.00;6.00;;;;;24.20;52.93;100208.47;5060507;28;45492;-45
2022/09/13 10:59:19;;;;;;;;;8.00;5.25;;;;;24.26;52.17;100200.72;5044960;28;45489;-44
2022/09/13 11:02:12;;;;;;;;;8.00;6.50;;;;;24.32;51.98;100201.97;5054311;28;46140;-47
2022/09/13 11:04:55;;;;;;;;;8.00;6.75;;;;;24.34;51.90;100201.84;5072957;28;45320;-46
2022/09/13 11:07:28;;;;;;;;;9.00;6.75;;;;;24.38;51.76;100203.22;5066159;28;45586;-44
2022/09/13 11:09:59;;;;;;;;;8.75;6.00;;;;;24.41;51.51;100181.53;5075094;28;45627;-45
2022/09/13 11:12:42;;;;;;;;;8.00;6.00;;;;;24.45;50.30;100181.13;5069304;28;46235;-47
2022/09/13 11:15:19;;;;;;;;;5.25;5.25;;;;;24.50;51.06;100186.03;5051297;28;45795;-46
2022/09/13 11:17:48;;;;;;;;;5.00;3.25;;;;;24.55;50.53;100181.09;5072084;28;45319;-44
2022/09/13 11:20:57;;;;;;;;;5.00;5.00;;;;;24.60;50.23;100184.19;5077383;28;45218;-44
2022/09/13 11:23:34;;;;;;;;;6.25;5.75;;;;;24.68;50.11;100190.66;4996502;28;47389;-45
2022/09/13 11:26:03;;;;;;;;;5.00;3.75;;;;;24.75;49.56;100186.41;4996308;28;45434;-46
2022/09/13 11:28:51;;;;;;;;;4.00;4.00;;;;;24.82;49.69;100180.31;5025183;28;45301;-49
2022/09/13 11:31:16;;;;;;;;;5.25;4.25;;;;;24.91;49.72;100181.25;5053334;28;45349;-47
2022/09/13 11:34:09;;;;;;;;;5.75;5.00;;;;;24.98;49.30;100176.16;5065470;28;45313;-45
2022/09/13 11:36:45;;;;;;;;;4.00;3.00;;;;;25.07;49.38;100185.13;5059074;28;45561;-45
2022/09/13 11:39:17;;;;;;;;;5.75;5.00;;;;;25.14;48.65;100176.38;5067047;28;45390;-48
2022/09/13 11:42:08;;;;;;;;;7.50;6.25;;;;;25.21;48.48;100168.56;5066016;28;45265;-44
2022/09/13 11:45:00;;;;;;;;;7.75;4.75;;;;;25.28;48.55;100171.50;5071559;28;46120;-48
2022/09/13 11:47:44;;;;;;;;;8.75;8.00;;;;;25.35;48.43;100168.06;5076438;27;45617;-45